sensor_id;sensor_type;location;lat;lon;timestamp;P1;durP1;ratioP1;P2;durP2;ratioP2
18228;SDS011;9239;50.932;3.142;2023-05-14T00:01:04;34.17;;;26.13;;
18228;SDS011;9239;50.932;3.142;2023-05-14T00:03:32;36.30;;;27.53;;
18228;SDS011;9239;50.932;3.142;2023-05-14T00:06:00;38.33;;;28.13;;
18228;SDS011;9239;50.932;3.142;2023-05-14T00:08:27;33.17;;;26.97;;
18228;SDS011;9239;50.932;3.142;2023-05-14T00:10:54;35.57;;;26.07;;
18228;SDS011;9239;50.932;3.142;2023-05-14T00:13:21;33.47;;;25.80;;
18228;SDS011;9239;50.932;3.142;2023-05-14T00:15:48;34.20;;;27.97;;
18228;SDS011;9239;50.932;3.142;2023-05-14T00:18:15;35.80;;;27.30;;
18228;SDS011;9239;50.932;3.142;2023-05-14T00:20:42;34.50;;;27.20;;
18228;SDS011;9239;50.932;3.142;2023-05-14T00:23:11;33.37;;;27.67;;
18228;SDS011;9239;50.932;3.142;2023-05-14T00:25:38;37.00;;;28.07;;
18228;SDS011;9239;50.932;3.142;2023-05-14T00:28:05;41.00;;;25.77;;
18228;SDS011;9239;50.932;3.142;2023-05-14T00:30:32;38.80;;;30.77;;
18228;SDS011;9239;50.932;3.142;2023-05-14T00:32:59;40.53;;;31.53;;
18228;SDS011;9239;50.932;3.142;2023-05-14T00:35:26;39.67;;;30.67;;
18228;SDS011;9239;50.932;3.142;2023-05-14T00:37:53;32.90;;;24.97;;
18228;SDS011;9239;50.932;3.142;2023-05-14T00:40:21;42.30;;;31.50;;
18228;SDS011;9239;50.932;3.142;2023-05-14T00:42:52;43.40;;;30.27;;
18228;SDS011;9239;50.932;3.142;2023-05-14T00:45:19;40.43;;;28.83;;
18228;SDS011;9239;50.932;3.142;2023-05-14T00:47:46;39.50;;;31.43;;
18228;SDS011;9239;50.932;3.142;2023-05-14T00:50:14;43.83;;;28.20;;
18228;SDS011;9239;50.932;3.142;2023-05-14T00:52:42;36.23;;;28.27;;
18228;SDS011;9239;50.932;3.142;2023-05-14T00:55:09;39.13;;;29.53;;
18228;SDS011;9239;50.932;3.142;2023-05-14T00:57:41;37.20;;;28.40;;
18228;SDS011;9239;50.932;3.142;2023-05-14T01:00:09;44.53;;;30.53;;
18228;SDS011;9239;50.932;3.142;2023-05-14T01:02:37;35.70;;;25.77;;
18228;SDS011;9239;50.932;3.142;2023-05-14T01:05:04;34.53;;;25.60;;
18228;SDS011;9239;50.932;3.142;2023-05-14T01:07:32;36.67;;;28.97;;
18228;SDS011;9239;50.932;3.142;2023-05-14T01:10:07;36.53;;;27.20;;
18228;SDS011;9239;50.932;3.142;2023-05-14T01:12:37;35.37;;;29.80;;
18228;SDS011;9239;50.932;3.142;2023-05-14T01:15:13;37.73;;;28.03;;
18228;SDS011;9239;50.932;3.142;2023-05-14T01:17:50;40.90;;;27.63;;
18228;SDS011;9239;50.932;3.142;2023-05-14T01:20:19;37.23;;;28.93;;
18228;SDS011;9239;50.932;3.142;2023-05-14T01:22:48;35.30;;;28.40;;
18228;SDS011;9239;50.932;3.142;2023-05-14T01:25:15;40.07;;;29.03;;
18228;SDS011;9239;50.932;3.142;2023-05-14T01:27:44;36.63;;;26.77;;
18228;SDS011;9239;50.932;3.142;2023-05-14T01:30:16;36.20;;;28.33;;
18228;SDS011;9239;50.932;3.142;2023-05-14T01:32:49;34.93;;;27.13;;
18228;SDS011;9239;50.932;3.142;2023-05-14T01:35:19;36.53;;;26.37;;
18228;SDS011;9239;50.932;3.142;2023-05-14T01:37:49;36.97;;;28.93;;
18228;SDS011;9239;50.932;3.142;2023-05-14T01:40:16;42.60;;;29.57;;
18228;SDS011;9239;50.932;3.142;2023-05-14T01:42:44;35.77;;;27.40;;
18228;SDS011;9239;50.932;3.142;2023-05-14T01:45:11;35.67;;;27.53;;
18228;SDS011;9239;50.932;3.142;2023-05-14T01:47:38;41.90;;;31.03;;
18228;SDS011;9239;50.932;3.142;2023-05-14T01:50:05;40.83;;;30.17;;
18228;SDS011;9239;50.932;3.142;2023-05-14T01:52:32;39.90;;;31.37;;
18228;SDS011;9239;50.932;3.142;2023-05-14T01:55:01;37.87;;;29.20;;
18228;SDS011;9239;50.932;3.142;2023-05-14T01:57:29;40.77;;;31.77;;
18228;SDS011;9239;50.932;3.142;2023-05-14T01:59:56;40.83;;;32.57;;
18228;SDS011;9239;50.932;3.142;2023-05-14T02:02:23;42.47;;;31.63;;
18228;SDS011;9239;50.932;3.142;2023-05-14T02:04:50;42.50;;;31.77;;
18228;SDS011;9239;50.932;3.142;2023-05-14T02:07:17;45.93;;;32.83;;
18228;SDS011;9239;50.932;3.142;2023-05-14T02:09:44;46.07;;;32.93;;
18228;SDS011;9239;50.932;3.142;2023-05-14T02:12:12;49.07;;;34.33;;
18228;SDS011;9239;50.932;3.142;2023-05-14T02:14:39;49.17;;;35.47;;
18228;SDS011;9239;50.932;3.142;2023-05-14T02:17:06;46.50;;;34.33;;
18228;SDS011;9239;50.932;3.142;2023-05-14T02:19:33;45.73;;;34.43;;
18228;SDS011;9239;50.932;3.142;2023-05-14T02:22:00;41.40;;;32.63;;
18228;SDS011;9239;50.932;3.142;2023-05-14T02:24:27;42.13;;;31.77;;
18228;SDS011;9239;50.932;3.142;2023-05-14T02:26:54;46.03;;;33.30;;
18228;SDS011;9239;50.932;3.142;2023-05-14T02:29:22;42.70;;;34.27;;
18228;SDS011;9239;50.932;3.142;2023-05-14T02:31:49;46.67;;;33.90;;
18228;SDS011;9239;50.932;3.142;2023-05-14T02:34:16;48.90;;;34.23;;
18228;SDS011;9239;50.932;3.142;2023-05-14T02:36:43;46.13;;;36.00;;
18228;SDS011;9239;50.932;3.142;2023-05-14T02:39:10;48.63;;;36.30;;
18228;SDS011;9239;50.932;3.142;2023-05-14T02:41:37;48.60;;;35.27;;
18228;SDS011;9239;50.932;3.142;2023-05-14T02:44:04;43.60;;;33.40;;
18228;SDS011;9239;50.932;3.142;2023-05-14T02:46:32;47.17;;;34.97;;
18228;SDS011;9239;50.932;3.142;2023-05-14T02:49:00;46.63;;;34.80;;
18228;SDS011;9239;50.932;3.142;2023-05-14T02:51:27;48.87;;;34.60;;
18228;SDS011;9239;50.932;3.142;2023-05-14T02:53:54;49.17;;;32.83;;
18228;SDS011;9239;50.932;3.142;2023-05-14T02:56:21;44.50;;;33.40;;
18228;SDS011;9239;50.932;3.142;2023-05-14T02:58:48;39.67;;;30.53;;
18228;SDS011;9239;50.932;3.142;2023-05-14T03:01:14;42.43;;;31.13;;
18228;SDS011;9239;50.932;3.142;2023-05-14T03:03:44;42.40;;;31.30;;
18228;SDS011;9239;50.932;3.142;2023-05-14T03:06:11;45.23;;;33.10;;
18228;SDS011;9239;50.932;3.142;2023-05-14T03:08:38;51.63;;;35.37;;
18228;SDS011;9239;50.932;3.142;2023-05-14T03:11:05;45.70;;;34.10;;
18228;SDS011;9239;50.932;3.142;2023-05-14T03:13:32;49.23;;;33.83;;
18228;SDS011;9239;50.932;3.142;2023-05-14T03:15:59;47.73;;;33.37;;
18228;SDS011;9239;50.932;3.142;2023-05-14T03:18:26;39.83;;;30.33;;
18228;SDS011;9239;50.932;3.142;2023-05-14T03:20:56;43.33;;;33.60;;
18228;SDS011;9239;50.932;3.142;2023-05-14T03:23:23;42.03;;;31.77;;
18228;SDS011;9239;50.932;3.142;2023-05-14T03:25:49;44.77;;;32.57;;
18228;SDS011;9239;50.932;3.142;2023-05-14T03:28:16;44.50;;;32.97;;
18228;SDS011;9239;50.932;3.142;2023-05-14T03:30:43;39.27;;;30.40;;
18228;SDS011;9239;50.932;3.142;2023-05-14T03:33:10;45.23;;;32.33;;
18228;SDS011;9239;50.932;3.142;2023-05-14T03:35:37;46.20;;;34.07;;
18228;SDS011;9239;50.932;3.142;2023-05-14T03:38:06;40.30;;;30.70;;
18228;SDS011;9239;50.932;3.142;2023-05-14T03:40:33;38.47;;;30.53;;
18228;SDS011;9239;50.932;3.142;2023-05-14T03:43:00;42.67;;;31.90;;
18228;SDS011;9239;50.932;3.142;2023-05-14T03:45:27;40.83;;;30.03;;
18228;SDS011;9239;50.932;3.142;2023-05-14T03:47:54;39.93;;;29.67;;
18228;SDS011;9239;50.932;3.142;2023-05-14T03:50:21;39.30;;;30.53;;
18228;SDS011;9239;50.932;3.142;2023-05-14T03:52:49;37.83;;;29.90;;
18228;SDS011;9239;50.932;3.142;2023-05-14T03:55:18;39.43;;;29.27;;
18228;SDS011;9239;50.932;3.142;2023-05-14T03:57:46;38.83;;;29.93;;
18228;SDS011;9239;50.932;3.142;2023-05-14T04:00:13;36.17;;;28.00;;
18228;SDS011;9239;50.932;3.142;2023-05-14T04:02:40;36.73;;;28.93;;
18228;SDS011;9239;50.932;3.142;2023-05-14T04:05:08;40.00;;;26.70;;
18228;SDS011;9239;50.932;3.142;2023-05-14T04:07:35;42.97;;;30.43;;
18228;SDS011;9239;50.932;3.142;2023-05-14T04:10:02;41.30;;;30.03;;
18228;SDS011;9239;50.932;3.142;2023-05-14T04:12:31;38.60;;;25.33;;
18228;SDS011;9239;50.932;3.142;2023-05-14T04:14:58;42.27;;;30.70;;
18228;SDS011;9239;50.932;3.142;2023-05-14T04:17:26;39.50;;;31.50;;
18228;SDS011;9239;50.932;3.142;2023-05-14T04:19:53;41.13;;;31.60;;
18228;SDS011;9239;50.932;3.142;2023-05-14T04:22:19;46.60;;;25.63;;
18228;SDS011;9239;50.932;3.142;2023-05-14T04:24:46;46.37;;;33.23;;
18228;SDS011;9239;50.932;3.142;2023-05-14T04:27:14;41.53;;;32.73;;
18228;SDS011;9239;50.932;3.142;2023-05-14T04:29:47;55.23;;;37.53;;
18228;SDS011;9239;50.932;3.142;2023-05-14T04:32:14;53.73;;;34.93;;
18228;SDS011;9239;50.932;3.142;2023-05-14T04:34:41;50.37;;;34.13;;
18228;SDS011;9239;50.932;3.142;2023-05-14T04:37:08;45.50;;;27.27;;
18228;SDS011;9239;50.932;3.142;2023-05-14T04:39:36;46.47;;;34.23;;
18228;SDS011;9239;50.932;3.142;2023-05-14T04:42:04;45.23;;;34.47;;
18228;SDS011;9239;50.932;3.142;2023-05-14T04:44:32;45.17;;;32.70;;
18228;SDS011;9239;50.932;3.142;2023-05-14T04:47:00;47.83;;;33.77;;
18228;SDS011;9239;50.932;3.142;2023-05-14T04:49:27;47.03;;;30.43;;
18228;SDS011;9239;50.932;3.142;2023-05-14T04:51:54;38.50;;;29.90;;
18228;SDS011;9239;50.932;3.142;2023-05-14T04:54:21;38.87;;;28.87;;
18228;SDS011;9239;50.932;3.142;2023-05-14T04:56:48;34.60;;;26.50;;
18228;SDS011;9239;50.932;3.142;2023-05-14T04:59:15;31.87;;;24.00;;
18228;SDS011;9239;50.932;3.142;2023-05-14T05:01:42;37.47;;;28.07;;
18228;SDS011;9239;50.932;3.142;2023-05-14T05:04:11;40.83;;;28.37;;
18228;SDS011;9239;50.932;3.142;2023-05-14T05:06:38;36.53;;;28.77;;
18228;SDS011;9239;50.932;3.142;2023-05-14T05:09:05;40.50;;;28.17;;
18228;SDS011;9239;50.932;3.142;2023-05-14T05:11:33;34.60;;;26.97;;
18228;SDS011;9239;50.932;3.142;2023-05-14T05:14:00;37.87;;;30.07;;
18228;SDS011;9239;50.932;3.142;2023-05-14T05:16:27;32.23;;;24.27;;
18228;SDS011;9239;50.932;3.142;2023-05-14T05:18:54;32.70;;;24.17;;
18228;SDS011;9239;50.932;3.142;2023-05-14T05:21:22;34.30;;;26.33;;
18228;SDS011;9239;50.932;3.142;2023-05-14T05:23:49;42.53;;;29.37;;
18228;SDS011;9239;50.932;3.142;2023-05-14T05:26:16;35.30;;;27.63;;
18228;SDS011;9239;50.932;3.142;2023-05-14T05:28:43;39.30;;;29.70;;
18228;SDS011;9239;50.932;3.142;2023-05-14T05:31:10;36.13;;;27.50;;
18228;SDS011;9239;50.932;3.142;2023-05-14T05:33:37;40.30;;;29.90;;
18228;SDS011;9239;50.932;3.142;2023-05-14T05:36:04;34.20;;;28.17;;
18228;SDS011;9239;50.932;3.142;2023-05-14T05:38:33;42.43;;;29.97;;
18228;SDS011;9239;50.932;3.142;2023-05-14T05:41:00;37.73;;;29.63;;
18228;SDS011;9239;50.932;3.142;2023-05-14T05:43:26;37.63;;;30.93;;
18228;SDS011;9239;50.932;3.142;2023-05-14T05:45:53;35.60;;;27.63;;
18228;SDS011;9239;50.932;3.142;2023-05-14T05:48:21;35.67;;;29.50;;
18228;SDS011;9239;50.932;3.142;2023-05-14T05:50:48;38.40;;;29.83;;
18228;SDS011;9239;50.932;3.142;2023-05-14T05:53:15;42.63;;;29.97;;
18228;SDS011;9239;50.932;3.142;2023-05-14T05:55:43;33.87;;;27.10;;
18228;SDS011;9239;50.932;3.142;2023-05-14T05:58:10;35.83;;;28.63;;
18228;SDS011;9239;50.932;3.142;2023-05-14T06:00:39;29.20;;;22.43;;
18228;SDS011;9239;50.932;3.142;2023-05-14T06:03:07;37.33;;;28.67;;
18228;SDS011;9239;50.932;3.142;2023-05-14T06:05:34;37.80;;;30.27;;
18228;SDS011;9239;50.932;3.142;2023-05-14T06:08:01;34.67;;;27.43;;
18228;SDS011;9239;50.932;3.142;2023-05-14T06:10:28;36.63;;;27.23;;
18228;SDS011;9239;50.932;3.142;2023-05-14T06:12:56;30.50;;;24.80;;
18228;SDS011;9239;50.932;3.142;2023-05-14T06:15:23;34.57;;;27.77;;
18228;SDS011;9239;50.932;3.142;2023-05-14T06:17:50;38.20;;;29.27;;
18228;SDS011;9239;50.932;3.142;2023-05-14T06:20:17;34.73;;;27.23;;
18228;SDS011;9239;50.932;3.142;2023-05-14T06:22:45;36.50;;;30.00;;
18228;SDS011;9239;50.932;3.142;2023-05-14T06:25:12;35.70;;;28.77;;
18228;SDS011;9239;50.932;3.142;2023-05-14T06:27:39;36.10;;;28.73;;
18228;SDS011;9239;50.932;3.142;2023-05-14T06:30:08;38.67;;;29.67;;
18228;SDS011;9239;50.932;3.142;2023-05-14T06:32:36;37.83;;;28.90;;
18228;SDS011;9239;50.932;3.142;2023-05-14T06:35:03;35.67;;;29.03;;
18228;SDS011;9239;50.932;3.142;2023-05-14T06:37:30;34.87;;;28.70;;
18228;SDS011;9239;50.932;3.142;2023-05-14T06:39:57;38.70;;;30.53;;
18228;SDS011;9239;50.932;3.142;2023-05-14T06:42:26;32.17;;;27.40;;
18228;SDS011;9239;50.932;3.142;2023-05-14T06:44:52;35.67;;;29.03;;
18228;SDS011;9239;50.932;3.142;2023-05-14T06:47:21;35.23;;;28.47;;
18228;SDS011;9239;50.932;3.142;2023-05-14T06:49:48;34.93;;;27.37;;
18228;SDS011;9239;50.932;3.142;2023-05-14T06:52:15;33.73;;;28.43;;
18228;SDS011;9239;50.932;3.142;2023-05-14T06:54:42;35.37;;;26.27;;
18228;SDS011;9239;50.932;3.142;2023-05-14T06:57:09;29.83;;;26.63;;
18228;SDS011;9239;50.932;3.142;2023-05-14T06:59:36;33.07;;;28.57;;
18228;SDS011;9239;50.932;3.142;2023-05-14T07:02:03;36.57;;;30.10;;
18228;SDS011;9239;50.932;3.142;2023-05-14T07:04:31;34.40;;;24.67;;
18228;SDS011;9239;50.932;3.142;2023-05-14T07:06:58;38.30;;;27.80;;
18228;SDS011;9239;50.932;3.142;2023-05-14T07:09:27;37.93;;;27.50;;
18228;SDS011;9239;50.932;3.142;2023-05-14T07:11:54;38.53;;;30.30;;
18228;SDS011;9239;50.932;3.142;2023-05-14T07:14:21;31.43;;;28.13;;
18228;SDS011;9239;50.932;3.142;2023-05-14T07:16:48;35.20;;;26.37;;
18228;SDS011;9239;50.932;3.142;2023-05-14T07:19:15;32.83;;;25.07;;
18228;SDS011;9239;50.932;3.142;2023-05-14T07:21:43;31.40;;;25.40;;
18228;SDS011;9239;50.932;3.142;2023-05-14T07:24:10;29.70;;;25.73;;
18228;SDS011;9239;50.932;3.142;2023-05-14T07:26:37;28.47;;;23.80;;
18228;SDS011;9239;50.932;3.142;2023-05-14T07:29:04;28.00;;;24.30;;
18228;SDS011;9239;50.932;3.142;2023-05-14T07:31:31;28.50;;;23.30;;
18228;SDS011;9239;50.932;3.142;2023-05-14T07:33:58;31.43;;;25.33;;
18228;SDS011;9239;50.932;3.142;2023-05-14T07:36:25;27.90;;;22.70;;
18228;SDS011;9239;50.932;3.142;2023-05-14T07:38:53;29.50;;;24.87;;
18228;SDS011;9239;50.932;3.142;2023-05-14T07:41:20;27.57;;;23.80;;
18228;SDS011;9239;50.932;3.142;2023-05-14T07:43:47;26.27;;;22.67;;
18228;SDS011;9239;50.932;3.142;2023-05-14T07:46:14;30.17;;;23.67;;
18228;SDS011;9239;50.932;3.142;2023-05-14T07:48:41;26.13;;;22.43;;
18228;SDS011;9239;50.932;3.142;2023-05-14T07:51:08;28.30;;;25.10;;
18228;SDS011;9239;50.932;3.142;2023-05-14T07:53:35;29.10;;;23.70;;
18228;SDS011;9239;50.932;3.142;2023-05-14T07:56:04;30.20;;;24.57;;
18228;SDS011;9239;50.932;3.142;2023-05-14T07:58:32;28.63;;;25.00;;
18228;SDS011;9239;50.932;3.142;2023-05-14T08:00:59;25.83;;;22.93;;
18228;SDS011;9239;50.932;3.142;2023-05-14T08:03:28;29.07;;;23.83;;
18228;SDS011;9239;50.932;3.142;2023-05-14T08:05:55;33.17;;;25.67;;
18228;SDS011;9239;50.932;3.142;2023-05-14T08:08:22;26.17;;;23.27;;
18228;SDS011;9239;50.932;3.142;2023-05-14T08:10:49;28.53;;;24.40;;
18228;SDS011;9239;50.932;3.142;2023-05-14T08:13:18;26.60;;;23.53;;
18228;SDS011;9239;50.932;3.142;2023-05-14T08:15:44;25.07;;;21.47;;
18228;SDS011;9239;50.932;3.142;2023-05-14T08:18:11;26.17;;;22.67;;
18228;SDS011;9239;50.932;3.142;2023-05-14T08:20:38;24.70;;;22.20;;
18228;SDS011;9239;50.932;3.142;2023-05-14T08:23:06;25.73;;;23.10;;
18228;SDS011;9239;50.932;3.142;2023-05-14T08:25:33;25.30;;;22.53;;
18228;SDS011;9239;50.932;3.142;2023-05-14T08:28:00;23.60;;;21.17;;
18228;SDS011;9239;50.932;3.142;2023-05-14T08:30:28;23.27;;;20.37;;
18228;SDS011;9239;50.932;3.142;2023-05-14T08:32:56;22.40;;;20.10;;
18228;SDS011;9239;50.932;3.142;2023-05-14T08:35:24;23.57;;;20.70;;
18228;SDS011;9239;50.932;3.142;2023-05-14T08:37:51;23.00;;;20.00;;
18228;SDS011;9239;50.932;3.142;2023-05-14T08:40:18;22.80;;;19.80;;
18228;SDS011;9239;50.932;3.142;2023-05-14T08:42:45;22.17;;;19.77;;
18228;SDS011;9239;50.932;3.142;2023-05-14T08:45:15;23.77;;;19.20;;
18228;SDS011;9239;50.932;3.142;2023-05-14T08:47:46;25.03;;;20.30;;
18228;SDS011;9239;50.932;3.142;2023-05-14T08:50:14;21.07;;;18.87;;
18228;SDS011;9239;50.932;3.142;2023-05-14T08:52:42;28.67;;;21.40;;
18228;SDS011;9239;50.932;3.142;2023-05-14T08:55:10;23.23;;;20.83;;
18228;SDS011;9239;50.932;3.142;2023-05-14T08:57:38;22.40;;;19.03;;
18228;SDS011;9239;50.932;3.142;2023-05-14T09:00:05;25.53;;;20.43;;
18228;SDS011;9239;50.932;3.142;2023-05-14T09:02:35;21.60;;;17.57;;
18228;SDS011;9239;50.932;3.142;2023-05-14T09:05:06;22.80;;;20.47;;
18228;SDS011;9239;50.932;3.142;2023-05-14T09:07:34;25.40;;;21.40;;
18228;SDS011;9239;50.932;3.142;2023-05-14T09:10:01;23.50;;;19.53;;
18228;SDS011;9239;50.932;3.142;2023-05-14T09:12:29;22.63;;;19.63;;
18228;SDS011;9239;50.932;3.142;2023-05-14T09:14:56;19.40;;;16.90;;
18228;SDS011;9239;50.932;3.142;2023-05-14T09:17:24;23.83;;;19.50;;
18228;SDS011;9239;50.932;3.142;2023-05-14T09:19:52;23.80;;;19.50;;
18228;SDS011;9239;50.932;3.142;2023-05-14T09:22:20;24.83;;;19.57;;
18228;SDS011;9239;50.932;3.142;2023-05-14T09:25:00;21.83;;;19.00;;
18228;SDS011;9239;50.932;3.142;2023-05-14T09:27:29;21.88;;;18.23;;
18228;SDS011;9239;50.932;3.142;2023-05-14T09:30:02;20.37;;;18.20;;
18228;SDS011;9239;50.932;3.142;2023-05-14T09:32:34;20.10;;;17.98;;
18228;SDS011;9239;50.932;3.142;2023-05-14T09:35:09;21.40;;;17.85;;
18228;SDS011;9239;50.932;3.142;2023-05-14T09:37:45;20.75;;;18.08;;
18228;SDS011;9239;50.932;3.142;2023-05-14T09:40:14;20.80;;;16.63;;
18228;SDS011;9239;50.932;3.142;2023-05-14T09:42:42;20.02;;;17.88;;
18228;SDS011;9239;50.932;3.142;2023-05-14T09:45:09;20.42;;;18.33;;
18228;SDS011;9239;50.932;3.142;2023-05-14T09:47:37;21.95;;;18.42;;
18228;SDS011;9239;50.932;3.142;2023-05-14T09:50:05;22.05;;;19.50;;
18228;SDS011;9239;50.932;3.142;2023-05-14T09:52:33;22.00;;;19.80;;
18228;SDS011;9239;50.932;3.142;2023-05-14T09:55:01;21.85;;;19.65;;
18228;SDS011;9239;50.932;3.142;2023-05-14T09:57:28;21.83;;;19.52;;
18228;SDS011;9239;50.932;3.142;2023-05-14T09:59:55;23.48;;;18.15;;
18228;SDS011;9239;50.932;3.142;2023-05-14T10:02:23;20.08;;;18.08;;
18228;SDS011;9239;50.932;3.142;2023-05-14T10:04:52;21.38;;;19.25;;
18228;SDS011;9239;50.932;3.142;2023-05-14T10:07:22;20.75;;;18.70;;
18228;SDS011;9239;50.932;3.142;2023-05-14T10:09:56;19.05;;;17.25;;
18228;SDS011;9239;50.932;3.142;2023-05-14T10:12:28;20.73;;;18.63;;
18228;SDS011;9239;50.932;3.142;2023-05-14T10:14:59;20.63;;;18.63;;
18228;SDS011;9239;50.932;3.142;2023-05-14T10:17:30;19.90;;;17.80;;
18228;SDS011;9239;50.932;3.142;2023-05-14T10:19:59;20.90;;;18.73;;
18228;SDS011;9239;50.932;3.142;2023-05-14T10:22:30;21.58;;;19.10;;
18228;SDS011;9239;50.932;3.142;2023-05-14T10:24:59;22.85;;;20.42;;
18228;SDS011;9239;50.932;3.142;2023-05-14T10:27:28;23.15;;;20.77;;
18228;SDS011;9239;50.932;3.142;2023-05-14T10:29:56;22.70;;;20.20;;
18228;SDS011;9239;50.932;3.142;2023-05-14T10:32:23;20.67;;;18.38;;
18228;SDS011;9239;50.932;3.142;2023-05-14T10:34:51;25.08;;;20.02;;
18228;SDS011;9239;50.932;3.142;2023-05-14T10:37:19;23.45;;;21.05;;
18228;SDS011;9239;50.932;3.142;2023-05-14T10:39:48;23.20;;;20.15;;
18228;SDS011;9239;50.932;3.142;2023-05-14T10:42:18;20.25;;;18.13;;
18228;SDS011;9239;50.932;3.142;2023-05-14T10:44:49;21.48;;;17.98;;
18228;SDS011;9239;50.932;3.142;2023-05-14T10:47:18;20.38;;;18.23;;
18228;SDS011;9239;50.932;3.142;2023-05-14T10:49:45;21.45;;;18.65;;
18228;SDS011;9239;50.932;3.142;2023-05-14T10:52:15;18.27;;;15.90;;
18228;SDS011;9239;50.932;3.142;2023-05-14T10:54:47;21.70;;;17.50;;
18228;SDS011;9239;50.932;3.142;2023-05-14T10:57:16;19.13;;;17.23;;
18228;SDS011;9239;50.932;3.142;2023-05-14T10:59:44;18.63;;;16.73;;
18228;SDS011;9239;50.932;3.142;2023-05-14T11:02:20;20.25;;;16.73;;
18228;SDS011;9239;50.932;3.142;2023-05-14T11:04:56;18.45;;;14.82;;
18228;SDS011;9239;50.932;3.142;2023-05-14T11:07:27;18.58;;;16.65;;
18228;SDS011;9239;50.932;3.142;2023-05-14T11:10:00;19.65;;;17.13;;
18228;SDS011;9239;50.932;3.142;2023-05-14T11:12:29;19.75;;;17.40;;
18228;SDS011;9239;50.932;3.142;2023-05-14T11:14:59;19.35;;;16.88;;
18228;SDS011;9239;50.932;3.142;2023-05-14T11:17:29;19.90;;;18.00;;
18228;SDS011;9239;50.932;3.142;2023-05-14T11:19:57;20.17;;;18.38;;
18228;SDS011;9239;50.932;3.142;2023-05-14T11:22:25;20.25;;;17.55;;
18228;SDS011;9239;50.932;3.142;2023-05-14T11:24:52;19.48;;;17.38;;
18228;SDS011;9239;50.932;3.142;2023-05-14T11:27:19;18.50;;;16.60;;
18228;SDS011;9239;50.932;3.142;2023-05-14T11:29:47;17.38;;;15.73;;
18228;SDS011;9239;50.932;3.142;2023-05-14T11:32:15;18.15;;;16.45;;
18228;SDS011;9239;50.932;3.142;2023-05-14T11:34:44;17.17;;;14.77;;
18228;SDS011;9239;50.932;3.142;2023-05-14T11:37:12;16.25;;;14.55;;
18228;SDS011;9239;50.932;3.142;2023-05-14T11:39:45;18.45;;;16.55;;
18228;SDS011;9239;50.932;3.142;2023-05-14T11:42:14;17.17;;;15.15;;
18228;SDS011;9239;50.932;3.142;2023-05-14T11:44:44;17.08;;;15.07;;
18228;SDS011;9239;50.932;3.142;2023-05-14T11:47:13;18.83;;;16.73;;
18228;SDS011;9239;50.932;3.142;2023-05-14T11:49:40;17.05;;;15.30;;
18228;SDS011;9239;50.932;3.142;2023-05-14T11:52:08;15.63;;;14.32;;
18228;SDS011;9239;50.932;3.142;2023-05-14T11:54:38;15.77;;;14.18;;
18228;SDS011;9239;50.932;3.142;2023-05-14T11:57:07;18.17;;;16.38;;
18228;SDS011;9239;50.932;3.142;2023-05-14T11:59:36;18.35;;;16.50;;
18228;SDS011;9239;50.932;3.142;2023-05-14T12:02:04;17.23;;;15.65;;
18228;SDS011;9239;50.932;3.142;2023-05-14T12:04:33;19.45;;;17.48;;
18228;SDS011;9239;50.932;3.142;2023-05-14T12:07:06;19.58;;;16.85;;
18228;SDS011;9239;50.932;3.142;2023-05-14T12:09:35;18.85;;;16.75;;
18228;SDS011;9239;50.932;3.142;2023-05-14T12:12:06;15.38;;;13.52;;
18228;SDS011;9239;50.932;3.142;2023-05-14T12:14:36;13.82;;;12.30;;
18228;SDS011;9239;50.932;3.142;2023-05-14T12:17:08;14.32;;;12.93;;
18228;SDS011;9239;50.932;3.142;2023-05-14T12:19:43;16.08;;;13.68;;
18228;SDS011;9239;50.932;3.142;2023-05-14T12:22:14;16.08;;;14.57;;
18228;SDS011;9239;50.932;3.142;2023-05-14T12:24:43;15.18;;;13.63;;
18228;SDS011;9239;50.932;3.142;2023-05-14T12:27:20;14.88;;;13.48;;
18228;SDS011;9239;50.932;3.142;2023-05-14T12:29:48;16.30;;;14.23;;
18228;SDS011;9239;50.932;3.142;2023-05-14T12:32:17;14.13;;;12.73;;
18228;SDS011;9239;50.932;3.142;2023-05-14T12:34:45;14.60;;;13.23;;
18228;SDS011;9239;50.932;3.142;2023-05-14T12:37:12;15.63;;;14.18;;
18228;SDS011;9239;50.932;3.142;2023-05-14T12:39:40;17.40;;;15.50;;
18228;SDS011;9239;50.932;3.142;2023-05-14T12:42:07;15.85;;;13.95;;
18228;SDS011;9239;50.932;3.142;2023-05-14T12:44:34;16.98;;;15.38;;
18228;SDS011;9239;50.932;3.142;2023-05-14T12:47:01;15.90;;;14.45;;
18228;SDS011;9239;50.932;3.142;2023-05-14T12:49:28;15.75;;;14.05;;
18228;SDS011;9239;50.932;3.142;2023-05-14T12:51:54;14.70;;;13.35;;
18228;SDS011;9239;50.932;3.142;2023-05-14T12:54:23;15.63;;;14.02;;
18228;SDS011;9239;50.932;3.142;2023-05-14T12:56:50;16.23;;;14.52;;
18228;SDS011;9239;50.932;3.142;2023-05-14T12:59:17;16.00;;;14.35;;
18228;SDS011;9239;50.932;3.142;2023-05-14T13:01:44;16.17;;;13.27;;
18228;SDS011;9239;50.932;3.142;2023-05-14T13:04:11;17.27;;;15.63;;
18228;SDS011;9239;50.932;3.142;2023-05-14T13:06:38;18.17;;;16.42;;
18228;SDS011;9239;50.932;3.142;2023-05-14T13:09:05;17.20;;;15.60;;
18228;SDS011;9239;50.932;3.142;2023-05-14T13:11:34;16.83;;;15.30;;
18228;SDS011;9239;50.932;3.142;2023-05-14T13:14:01;16.73;;;15.10;;
18228;SDS011;9239;50.932;3.142;2023-05-14T13:16:28;16.38;;;14.73;;
18228;SDS011;9239;50.932;3.142;2023-05-14T13:18:55;15.63;;;14.05;;
18228;SDS011;9239;50.932;3.142;2023-05-14T13:21:22;17.08;;;15.30;;
18228;SDS011;9239;50.932;3.142;2023-05-14T13:23:49;16.35;;;14.50;;
18228;SDS011;9239;50.932;3.142;2023-05-14T13:26:16;15.95;;;14.30;;
18228;SDS011;9239;50.932;3.142;2023-05-14T13:28:44;18.40;;;15.45;;
18228;SDS011;9239;50.932;3.142;2023-05-14T13:31:12;14.73;;;13.27;;
18228;SDS011;9239;50.932;3.142;2023-05-14T13:33:39;15.35;;;13.85;;
18228;SDS011;9239;50.932;3.142;2023-05-14T13:36:07;17.30;;;15.50;;
18228;SDS011;9239;50.932;3.142;2023-05-14T13:38:35;17.80;;;16.05;;
18228;SDS011;9239;50.932;3.142;2023-05-14T13:41:03;15.95;;;14.32;;
18228;SDS011;9239;50.932;3.142;2023-05-14T13:43:30;16.35;;;14.75;;
18228;SDS011;9239;50.932;3.142;2023-05-14T13:45:59;16.60;;;14.90;;
18228;SDS011;9239;50.932;3.142;2023-05-14T13:48:27;17.02;;;15.25;;
18228;SDS011;9239;50.932;3.142;2023-05-14T13:50:55;15.05;;;13.65;;
18228;SDS011;9239;50.932;3.142;2023-05-14T13:53:22;16.35;;;14.70;;
18228;SDS011;9239;50.932;3.142;2023-05-14T13:55:50;15.07;;;13.48;;
18228;SDS011;9239;50.932;3.142;2023-05-14T13:58:20;14.93;;;13.43;;
18228;SDS011;9239;50.932;3.142;2023-05-14T14:00:48;15.10;;;12.77;;
18228;SDS011;9239;50.932;3.142;2023-05-14T14:03:16;14.60;;;13.02;;
18228;SDS011;9239;50.932;3.142;2023-05-14T14:05:43;15.30;;;13.80;;
18228;SDS011;9239;50.932;3.142;2023-05-14T14:08:10;15.00;;;13.43;;
18228;SDS011;9239;50.932;3.142;2023-05-14T14:10:37;13.50;;;12.10;;
18228;SDS011;9239;50.932;3.142;2023-05-14T14:13:06;13.88;;;12.45;;
18228;SDS011;9239;50.932;3.142;2023-05-14T14:15:33;14.55;;;12.30;;
18228;SDS011;9239;50.932;3.142;2023-05-14T14:18:00;15.57;;;14.15;;
18228;SDS011;9239;50.932;3.142;2023-05-14T14:20:29;14.02;;;12.65;;
18228;SDS011;9239;50.932;3.142;2023-05-14T14:22:56;18.67;;;14.75;;
18228;SDS011;9239;50.932;3.142;2023-05-14T14:25:23;15.68;;;14.23;;
18228;SDS011;9239;50.932;3.142;2023-05-14T14:27:50;18.17;;;16.38;;
18228;SDS011;9239;50.932;3.142;2023-05-14T14:30:17;17.95;;;16.10;;
18228;SDS011;9239;50.932;3.142;2023-05-14T14:32:45;18.13;;;16.42;;
18228;SDS011;9239;50.932;3.142;2023-05-14T14:35:13;18.10;;;16.00;;
18228;SDS011;9239;50.932;3.142;2023-05-14T14:37:42;17.75;;;15.90;;